createdAt,value
2019-04-10T00:01:15.132Z,7.23
2019-04-10T00:03:44.043Z,8.07
2019-04-10T00:06:15.601Z,7.20
2019-04-10T00:08:42.880Z,8.83
2019-04-10T00:11:12.032Z,9.00
2019-04-10T00:13:40.798Z,8.20
2019-04-10T00:16:09.207Z,7.27
2019-04-10T00:18:38.004Z,8.20
2019-04-10T00:21:07.107Z,7.10
2019-04-10T00:23:35.744Z,7.90
2019-04-10T00:26:23.787Z,7.60
2019-04-10T00:28:52.394Z,7.83
2019-04-10T00:31:20.810Z,7.40
2019-04-10T00:33:49.328Z,7.73
2019-04-10T00:36:18.224Z,7.60
2019-04-10T00:38:46.710Z,7.73
2019-04-10T00:41:16.256Z,7.23
2019-04-10T00:43:44.930Z,8.37
2019-04-10T00:46:13.678Z,7.90
2019-04-10T00:48:42.279Z,7.40
2019-04-10T00:51:11.059Z,6.93
2019-04-10T00:53:39.471Z,8.20
2019-04-10T00:56:08.388Z,7.40
2019-04-10T00:58:37.550Z,7.10
2019-04-10T01:01:07.589Z,7.40
2019-04-10T01:03:46.653Z,8.20
2019-04-10T01:06:15.870Z,7.70
2019-04-10T01:08:44.741Z,5.47
2019-04-10T01:11:13.376Z,8.10
2019-04-10T01:13:41.795Z,7.97
2019-04-10T01:16:11.194Z,7.90
2019-04-10T01:18:39.820Z,8.47
2019-04-10T01:21:08.335Z,8.13
2019-04-10T01:23:38.041Z,8.30
2019-04-10T01:26:07.244Z,7.30
2019-04-10T01:28:36.687Z,7.47
2019-04-10T01:31:05.344Z,7.07
2019-04-10T01:33:33.759Z,9.33
2019-04-10T01:36:02.772Z,8.23
2019-04-10T01:38:31.486Z,7.07
2019-04-10T01:41:01.479Z,8.23
2019-04-10T01:43:30.929Z,7.73
2019-04-10T01:46:00.017Z,8.30
2019-04-10T01:48:28.560Z,7.63
2019-04-10T01:50:57.141Z,7.50
2019-04-10T01:53:25.968Z,6.90
2019-04-10T01:55:55.555Z,7.67
2019-04-10T01:58:25.302Z,7.47
2019-04-10T02:01:12.232Z,7.77
2019-04-10T02:03:40.812Z,7.43
2019-04-10T02:06:09.267Z,7.70
2019-04-10T02:08:38.225Z,6.67
2019-04-10T02:11:06.878Z,7.50
2019-04-10T02:13:35.867Z,7.30
2019-04-10T02:16:04.516Z,7.23
2019-04-10T02:18:33.190Z,7.37
2019-04-10T02:21:01.848Z,6.80
2019-04-10T02:23:30.568Z,6.50
2019-04-10T02:26:11.612Z,7.23
2019-04-10T02:28:40.060Z,6.50
2019-04-10T02:31:10.061Z,6.77
2019-04-10T02:33:38.898Z,5.83
2019-04-10T02:36:08.488Z,6.47
2019-04-10T02:38:52.658Z,6.23
2019-04-10T02:41:08.470Z,5.30
2019-04-10T02:43:38.063Z,5.60
2019-04-10T02:46:08.331Z,6.53
2019-04-10T02:48:36.976Z,5.90
2019-04-10T02:51:05.675Z,6.23
2019-04-10T02:53:35.232Z,6.00
2019-04-10T02:56:05.283Z,5.30
2019-04-10T02:58:34.369Z,5.20
2019-04-10T03:01:03.646Z,5.50
2019-04-10T03:03:32.134Z,5.47
2019-04-10T03:06:00.590Z,5.60
2019-04-10T03:08:44.922Z,6.30
2019-04-10T03:11:03.970Z,4.57
2019-04-10T03:13:31.048Z,5.03
2019-04-10T03:16:00.054Z,6.00
2019-04-10T03:18:28.601Z,5.33
2019-04-10T03:20:57.022Z,5.37
2019-04-10T03:23:25.445Z,4.77
2019-04-10T03:25:53.854Z,4.07
2019-04-10T03:28:22.945Z,5.30
2019-04-10T03:30:51.489Z,4.60
2019-04-10T03:33:33.104Z,5.07
2019-04-10T03:36:00.799Z,4.93
2019-04-10T03:38:29.963Z,3.40
2019-04-10T03:40:58.440Z,5.20
2019-04-10T03:43:27.880Z,4.90
2019-04-10T03:45:57.140Z,4.00
2019-04-10T03:48:25.814Z,5.07
2019-04-10T03:50:54.297Z,4.47
2019-04-10T03:53:23.255Z,4.60
2019-04-10T03:55:53.608Z,5.50
2019-04-10T03:58:23.104Z,4.70
2019-04-10T04:00:52.210Z,5.13
2019-04-10T04:03:20.726Z,5.17
2019-04-10T04:05:49.147Z,5.30
2019-04-10T04:08:17.566Z,5.20
2019-04-10T04:10:45.991Z,5.07
2019-04-10T04:13:15.309Z,4.90
2019-04-10T04:16:03.579Z,4.67
2019-04-10T04:18:33.201Z,4.97
2019-04-10T04:21:01.899Z,4.50
2019-04-10T04:23:30.311Z,5.70
2019-04-10T04:25:58.950Z,4.97
2019-04-10T04:28:27.694Z,5.30
2019-04-10T04:30:56.770Z,4.40
2019-04-10T04:33:25.585Z,4.33
2019-04-10T04:35:55.316Z,4.93
2019-04-10T04:38:23.755Z,4.57
2019-04-10T04:40:52.811Z,4.83
2019-04-10T04:43:21.915Z,4.37
2019-04-10T04:45:52.970Z,4.57
2019-04-10T04:48:21.927Z,4.13
2019-04-10T04:50:52.089Z,4.87
2019-04-10T04:53:20.686Z,4.67
2019-04-10T04:55:49.266Z,4.70
2019-04-10T04:58:18.094Z,4.50
2019-04-10T05:00:48.229Z,5.03
2019-04-10T05:03:16.954Z,4.50
2019-04-10T05:05:45.364Z,4.50
2019-04-10T05:08:13.791Z,4.37
2019-04-10T05:10:42.202Z,4.53
2019-04-10T05:13:10.631Z,4.73
2019-04-10T05:15:39.040Z,5.10
2019-04-10T05:18:07.472Z,4.00
2019-04-10T05:20:44.115Z,4.50
2019-04-10T05:23:06.278Z,4.80
2019-04-10T05:25:35.905Z,4.70
2019-04-10T05:28:05.834Z,4.67
2019-04-10T05:30:35.704Z,4.50
2019-04-10T05:33:04.492Z,4.87
2019-04-10T05:35:33.291Z,4.70
2019-04-10T05:38:02.526Z,3.87
2019-04-10T05:40:31.108Z,4.70
2019-04-10T05:43:01.611Z,4.87
2019-04-10T05:45:30.108Z,5.07
2019-04-10T05:47:59.045Z,4.70
2019-04-10T05:50:27.838Z,5.63
2019-04-10T05:52:56.360Z,4.87
2019-04-10T05:55:24.777Z,4.60
2019-04-10T05:57:53.352Z,5.07
2019-04-10T06:00:23.035Z,4.77
2019-04-10T06:02:52.167Z,3.60
2019-04-10T06:05:20.816Z,4.80
2019-04-10T06:07:49.561Z,4.97
2019-04-10T06:10:19.639Z,4.00
2019-04-10T06:12:48.783Z,4.00
2019-04-10T06:15:17.636Z,4.70
2019-04-10T06:17:46.964Z,3.93
2019-04-10T06:20:15.909Z,4.50
2019-04-10T06:22:45.470Z,4.23
2019-04-10T06:25:16.052Z,4.73
2019-04-10T06:27:44.988Z,4.60
2019-04-10T06:30:14.002Z,5.27
2019-04-10T06:32:43.201Z,4.40
2019-04-10T06:35:13.490Z,4.77
2019-04-10T06:37:42.280Z,4.83
2019-04-10T06:40:18.638Z,4.27
2019-04-10T06:42:48.522Z,4.50
2019-04-10T06:45:12.475Z,4.67
2019-04-10T06:47:40.979Z,5.30
2019-04-10T06:50:10.632Z,4.77
2019-04-10T06:52:39.140Z,4.13
2019-04-10T06:55:09.430Z,3.80
2019-04-10T06:57:46.852Z,4.27
2019-04-10T07:00:13.748Z,4.87
2019-04-10T07:02:40.424Z,5.50
2019-04-10T07:05:11.626Z,4.83
2019-04-10T07:07:49.606Z,5.03
2019-04-10T07:10:23.218Z,4.27
2019-04-10T07:12:40.164Z,4.57
2019-04-10T07:15:10.642Z,5.40
2019-04-10T07:17:41.062Z,5.40
2019-04-10T07:20:10.716Z,5.00
2019-04-10T07:22:44.588Z,4.93
2019-04-10T07:25:11.615Z,4.90
2019-04-10T07:27:41.748Z,4.90
2019-04-10T07:30:11.784Z,3.77
2019-04-10T07:32:43.309Z,4.00
2019-04-10T07:35:13.838Z,5.07
2019-04-10T07:37:40.871Z,5.17
2019-04-10T07:40:10.042Z,5.63
2019-04-10T07:42:41.569Z,5.40
2019-04-10T07:45:09.597Z,5.23
2019-04-10T07:47:38.126Z,5.47
2019-04-10T07:50:08.689Z,5.60
2019-04-10T07:52:37.411Z,4.80
2019-04-10T07:55:08.582Z,5.47
2019-04-10T07:57:38.174Z,5.03
2019-04-10T08:00:09.672Z,4.37
2019-04-10T08:02:38.523Z,4.90
2019-04-10T08:05:08.201Z,4.80
2019-04-10T08:07:38.768Z,5.00
2019-04-10T08:10:08.054Z,5.63
2019-04-10T08:12:42.378Z,4.80
2019-04-10T08:15:07.724Z,5.70
2019-04-10T08:17:36.868Z,6.07
2019-04-10T08:20:06.041Z,6.03
2019-04-10T08:22:34.982Z,5.37
2019-04-10T08:25:04.822Z,5.27
2019-04-10T08:27:34.160Z,5.93
2019-04-10T08:30:03.343Z,6.13
2019-04-10T08:32:33.407Z,5.50
2019-04-10T08:35:02.159Z,5.60
2019-04-10T08:37:30.658Z,6.33
2019-04-10T08:39:59.305Z,5.87
2019-04-10T08:42:27.730Z,6.23
2019-04-10T08:44:56.420Z,5.37
2019-04-10T08:47:25.081Z,5.37
2019-04-10T08:49:53.498Z,5.50
2019-04-10T08:52:22.142Z,5.30
2019-04-10T08:54:51.213Z,5.30
2019-04-10T08:57:19.705Z,4.90
2019-04-10T08:59:48.354Z,6.43
2019-04-10T09:02:17.921Z,5.40
2019-04-10T09:04:46.993Z,6.00
2019-04-10T09:07:15.867Z,6.17
2019-04-10T09:09:44.437Z,5.40
2019-04-10T09:12:13.605Z,6.20
2019-04-10T09:14:43.363Z,6.87
2019-04-10T09:17:13.172Z,6.60
2019-04-10T09:19:42.293Z,6.73
2019-04-10T09:22:11.971Z,5.30
2019-04-10T09:24:40.558Z,6.00
2019-04-10T09:27:08.974Z,6.83
2019-04-10T09:29:38.258Z,6.60
2019-04-10T09:32:06.811Z,6.30
2019-04-10T09:34:35.969Z,6.00
2019-04-10T09:37:04.663Z,7.40
2019-04-10T09:39:33.767Z,6.50
2019-04-10T09:42:03.380Z,6.50
2019-04-10T09:44:32.127Z,6.60
2019-04-10T09:47:00.554Z,6.20
2019-04-10T09:49:35.613Z,7.33
2019-04-10T09:51:59.144Z,6.83
2019-04-10T09:54:28.125Z,7.20
2019-04-10T09:56:57.134Z,5.07
2019-04-10T09:59:32.903Z,5.40
2019-04-10T10:01:56.357Z,6.70
2019-04-10T10:04:25.746Z,6.50
2019-04-10T10:06:55.664Z,8.03
2019-04-10T10:09:24.446Z,7.60
2019-04-10T10:11:53.455Z,6.43
2019-04-10T10:14:23.083Z,6.63
2019-04-10T10:16:52.520Z,5.00
2019-04-10T10:19:21.825Z,7.50
2019-04-10T10:21:50.545Z,7.50
2019-04-10T10:24:19.423Z,6.27
2019-04-10T10:26:48.035Z,7.70
2019-04-10T10:29:17.591Z,7.80
2019-04-10T10:31:46.759Z,5.00
2019-04-10T10:34:16.433Z,7.23
2019-04-10T10:37:06.339Z,6.90
2019-04-10T10:39:35.072Z,7.30
2019-04-10T10:42:03.784Z,8.00
2019-04-10T10:44:32.298Z,7.17
2019-04-10T10:47:01.977Z,9.30
2019-04-10T10:49:30.675Z,8.20
2019-04-10T10:51:59.543Z,6.90
2019-04-10T10:54:29.289Z,7.80
2019-04-10T10:56:58.475Z,7.80
2019-04-10T10:59:27.368Z,7.00
2019-04-10T11:02:08.587Z,7.60
2019-04-10T11:04:37.862Z,8.50
2019-04-10T11:07:06.960Z,7.30
2019-04-10T11:09:35.989Z,7.07
2019-04-10T11:12:06.746Z,8.70
2019-04-10T11:14:35.504Z,8.20
2019-04-10T11:17:05.301Z,7.80
2019-04-10T11:19:35.392Z,6.73
2019-04-10T11:22:07.253Z,7.20
2019-04-10T11:24:38.138Z,7.03
2019-04-10T11:27:08.081Z,7.90
2019-04-10T11:29:37.687Z,7.87
2019-04-10T11:32:06.791Z,8.27
2019-04-10T11:34:35.711Z,8.00
2019-04-10T11:39:35.919Z,7.03
2019-04-10T11:42:06.557Z,7.97
2019-04-10T11:44:36.606Z,6.60
2019-04-10T11:47:08.636Z,8.17
2019-04-10T11:49:57.617Z,8.67
2019-04-10T11:52:33.766Z,8.00
2019-04-10T11:55:06.046Z,8.07
2019-04-10T11:57:26.469Z,8.07
2019-04-10T11:59:56.958Z,7.27
2019-04-10T12:02:28.256Z,7.60
2019-04-10T12:05:01.623Z,8.10
2019-04-10T12:07:58.620Z,6.93
2019-04-10T12:12:27.900Z,8.30
2019-04-10T12:14:56.457Z,7.33
2019-04-10T12:17:25.621Z,6.80
2019-04-10T12:19:54.307Z,6.80
2019-04-10T12:22:23.315Z,6.67
2019-04-10T12:24:51.906Z,6.57
2019-04-10T12:27:20.913Z,5.73
2019-04-10T12:29:49.423Z,7.20
2019-04-10T12:32:18.853Z,7.17
2019-04-10T12:34:47.410Z,7.37
2019-04-10T12:37:17.522Z,7.10
2019-04-10T12:39:47.478Z,8.00
2019-04-10T12:42:16.467Z,5.67
2019-04-10T12:44:45.043Z,6.20
2019-04-10T12:47:13.498Z,7.00
2019-04-10T12:49:41.968Z,7.90
2019-04-10T12:52:10.412Z,7.13
2019-04-10T12:54:40.473Z,6.63
2019-04-10T12:57:28.705Z,8.30
2019-04-10T13:00:01.223Z,8.57
2019-04-10T13:02:28.088Z,6.40
2019-04-10T13:04:56.988Z,7.20
2019-04-10T13:07:25.468Z,6.90
2019-04-10T13:09:54.012Z,7.20
2019-04-10T13:12:23.005Z,7.00
2019-04-10T13:14:51.724Z,6.87
2019-04-10T13:17:20.500Z,6.90
2019-04-10T13:19:49.240Z,7.37
2019-04-10T13:22:18.017Z,8.00
2019-04-10T13:24:46.566Z,6.53
2019-04-10T13:27:15.030Z,7.27
2019-04-10T13:29:44.631Z,7.50
2019-04-10T13:32:13.911Z,6.37
2019-04-10T13:34:43.619Z,6.17
2019-04-10T13:37:12.482Z,7.00
2019-04-10T13:39:41.364Z,5.43
2019-04-10T13:42:10.699Z,7.13
2019-04-10T13:44:59.273Z,6.20
2019-04-10T13:47:29.125Z,7.30
2019-04-10T13:49:58.059Z,6.63
2019-04-10T13:52:27.855Z,6.60
2019-04-10T13:55:01.071Z,6.80
2019-04-10T13:57:30.629Z,6.10
2019-04-10T13:59:59.522Z,6.10
2019-04-10T14:02:31.131Z,6.80
2019-04-10T14:05:00.278Z,6.30
2019-04-10T14:07:28.883Z,6.20
2019-04-10T14:09:58.564Z,6.13
2019-04-10T14:12:27.303Z,6.20
2019-04-10T14:14:55.718Z,6.20
2019-04-10T14:17:24.426Z,6.17
2019-04-10T14:19:54.017Z,6.27
2019-04-10T14:22:23.916Z,5.50
2019-04-10T14:24:53.510Z,5.57
2019-04-10T14:27:42.579Z,5.80
2019-04-10T14:30:13.294Z,5.80
2019-04-10T14:32:42.099Z,5.80
2019-04-10T14:35:11.470Z,5.53
2019-04-10T14:37:39.910Z,6.03
2019-04-10T14:40:11.505Z,5.57
2019-04-10T14:42:40.561Z,6.03
2019-04-10T14:45:09.405Z,4.97
2019-04-10T14:47:39.185Z,5.47
2019-04-10T14:50:07.896Z,5.43
2019-04-10T14:52:37.156Z,5.50
2019-04-10T14:55:06.378Z,4.83
2019-04-10T14:57:34.980Z,4.40
2019-04-10T15:00:08.524Z,5.20
2019-04-10T15:02:37.259Z,5.43
2019-04-10T15:05:08.033Z,5.73
2019-04-10T15:07:37.301Z,4.70
2019-04-10T15:10:08.107Z,5.83
2019-04-10T15:12:37.386Z,5.40
2019-04-10T15:15:06.220Z,5.40
2019-04-10T15:17:54.319Z,5.30
2019-04-10T15:20:22.874Z,4.63
2019-04-10T15:22:52.628Z,6.63
2019-04-10T15:25:21.244Z,5.70
2019-04-10T15:27:49.714Z,7.30
2019-04-10T15:30:18.361Z,5.70
2019-04-10T15:32:47.613Z,6.23
2019-04-10T15:35:16.197Z,5.00
2019-04-10T15:37:45.018Z,5.30
2019-04-10T15:40:20.886Z,5.40
2019-04-10T15:42:45.970Z,5.33
2019-04-10T15:45:34.038Z,5.90
2019-04-10T15:48:03.243Z,5.37
2019-04-10T15:50:32.577Z,4.53
2019-04-10T15:53:02.119Z,5.10
2019-04-10T15:55:32.186Z,4.53
2019-04-10T15:58:03.692Z,4.80
2019-04-10T16:00:33.030Z,4.97
2019-04-10T16:03:02.843Z,4.63
2019-04-10T16:05:31.552Z,5.10
2019-04-10T16:08:00.793Z,4.33
2019-04-10T16:10:50.322Z,4.97
2019-04-10T16:13:36.646Z,5.47
2019-04-10T16:16:07.288Z,4.87
2019-04-10T16:18:36.690Z,3.87
2019-04-10T16:21:06.303Z,4.60
2019-04-10T16:23:40.033Z,6.20
2019-04-10T16:26:09.016Z,4.37
2019-04-10T16:28:37.610Z,3.57
2019-04-10T16:31:06.074Z,4.00
2019-04-10T16:33:35.652Z,4.20
2019-04-10T16:36:05.281Z,4.53
2019-04-10T16:38:33.900Z,3.83
2019-04-10T16:41:02.709Z,4.30
2019-04-10T16:43:32.640Z,4.37
2019-04-10T16:46:01.326Z,4.30
2019-04-10T16:48:29.738Z,4.50
2019-04-10T16:50:58.159Z,4.63
2019-04-10T16:53:27.855Z,4.00
2019-04-10T16:55:56.873Z,4.03
2019-04-10T16:58:25.653Z,4.23
2019-04-10T17:00:54.307Z,4.20
2019-04-10T17:03:22.748Z,4.70
2019-04-10T17:05:51.179Z,4.33
2019-04-10T17:08:19.724Z,4.30
2019-04-10T17:10:48.387Z,4.40
2019-04-10T17:13:18.217Z,4.33
2019-04-10T17:15:48.647Z,3.93
2019-04-10T17:18:17.087Z,4.80
2019-04-10T17:20:46.622Z,4.67
2019-04-10T17:23:16.372Z,5.30
2019-04-10T17:25:45.059Z,5.57
2019-04-10T17:28:14.326Z,5.40
2019-04-10T17:30:44.124Z,4.70
2019-04-10T17:33:13.159Z,4.23
2019-04-10T17:35:41.828Z,4.63
2019-04-10T17:38:10.393Z,5.30
2019-04-10T17:40:46.453Z,4.83
2019-04-10T17:43:08.993Z,4.80
2019-04-10T17:45:38.559Z,4.80
2019-04-10T17:48:07.325Z,4.40
2019-04-10T17:50:35.771Z,5.47
2019-04-10T17:53:05.081Z,4.93
2019-04-10T17:55:34.318Z,4.93
2019-04-10T17:58:03.275Z,4.87
2019-04-10T18:00:33.596Z,4.57
2019-04-10T18:03:03.293Z,4.40
2019-04-10T18:05:32.902Z,5.43
2019-04-10T18:08:01.391Z,4.50
2019-04-10T18:10:41.105Z,4.97
2019-04-10T18:13:00.901Z,4.63
2019-04-10T18:15:30.326Z,4.67
2019-04-10T18:17:59.753Z,5.07
2019-04-10T18:20:28.717Z,4.83
2019-04-10T18:22:57.135Z,4.20
2019-04-10T18:25:25.686Z,4.80
2019-04-10T18:27:54.660Z,5.97
2019-04-10T18:30:23.784Z,4.90
2019-04-10T18:33:12.118Z,4.83
2019-04-10T18:35:40.764Z,4.30
2019-04-10T18:38:09.321Z,4.30
2019-04-10T18:40:37.798Z,5.43
2019-04-10T18:43:06.357Z,4.80
2019-04-10T18:45:35.606Z,5.00
2019-04-10T18:48:04.253Z,6.47
2019-04-10T18:50:32.705Z,4.90
2019-04-10T18:53:21.256Z,4.80
2019-04-10T18:55:49.782Z,4.40
2019-04-10T18:58:19.870Z,4.30
2019-04-10T19:01:03.034Z,3.97
2019-04-10T19:03:50.283Z,4.33
2019-04-10T19:06:28.859Z,6.80
2019-04-10T19:09:06.448Z,8.67
2019-04-10T19:11:32.451Z,8.40
2019-04-10T19:13:57.813Z,7.00
2019-04-10T19:16:27.669Z,6.47
2019-04-10T19:18:56.888Z,5.23
2019-04-10T19:21:25.368Z,5.03
2019-04-10T19:23:53.890Z,4.43
2019-04-10T19:26:23.192Z,4.07
2019-04-10T19:28:52.912Z,3.73
2019-04-10T19:31:26.250Z,3.50
2019-04-10T19:33:54.841Z,3.73
2019-04-10T19:36:23.763Z,3.70
2019-04-10T19:38:53.723Z,4.03
2019-04-10T19:41:29.597Z,3.90
2019-04-10T19:43:52.733Z,4.00
2019-04-10T19:46:21.568Z,3.80
2019-04-10T19:48:51.885Z,3.83
2019-04-10T19:51:20.362Z,4.20
2019-04-10T19:53:49.187Z,4.53
2019-04-10T19:56:18.217Z,3.80
2019-04-10T19:58:46.702Z,4.40
2019-04-10T20:01:15.483Z,4.20
2019-04-10T20:03:43.954Z,3.40
2019-04-10T20:06:14.271Z,3.67
2019-04-10T20:08:43.879Z,4.20
2019-04-10T20:11:12.867Z,4.10
2019-04-10T20:13:41.427Z,3.80
2019-04-10T20:16:11.024Z,4.10
2019-04-10T20:18:41.097Z,3.93
2019-04-10T20:21:10.026Z,4.00
2019-04-10T20:23:38.639Z,4.10
2019-04-10T20:26:07.176Z,4.00
2019-04-10T20:28:36.606Z,4.07
2019-04-10T20:31:07.080Z,4.53
2019-04-10T20:33:35.774Z,3.87
2019-04-10T20:36:04.719Z,3.80
2019-04-10T20:38:33.755Z,4.10
2019-04-10T20:41:04.497Z,4.13
2019-04-10T20:43:33.790Z,5.03
2019-04-10T20:46:03.556Z,4.90
2019-04-10T20:48:32.840Z,3.80
2019-04-10T20:51:01.323Z,4.20
2019-04-10T20:53:29.742Z,4.43
2019-04-10T20:56:18.784Z,4.63
2019-04-10T20:58:47.650Z,3.73
2019-04-10T21:01:16.774Z,4.60
2019-04-10T21:03:45.275Z,4.40
2019-04-10T21:06:13.879Z,4.70
2019-04-10T21:08:42.461Z,4.10
2019-04-10T21:11:11.720Z,4.97
2019-04-10T21:13:40.503Z,4.40
2019-04-10T21:16:09.528Z,4.50
2019-04-10T21:18:37.944Z,4.20
2019-04-10T21:21:06.367Z,3.83
2019-04-10T21:23:35.805Z,4.33
2019-04-10T21:26:04.278Z,3.97
2019-04-10T21:28:32.725Z,4.10
2019-04-10T21:31:11.880Z,3.77
2019-04-10T21:33:42.946Z,3.67
2019-04-10T21:36:11.617Z,4.07
2019-04-10T21:38:40.703Z,3.70
2019-04-10T21:41:10.817Z,4.17
2019-04-10T21:43:39.497Z,4.40
2019-04-10T21:46:08.245Z,4.20
2019-04-10T21:48:37.231Z,4.43
2019-04-10T21:51:06.779Z,4.57
2019-04-10T21:53:35.996Z,5.30
2019-04-10T21:56:06.256Z,5.00
2019-04-10T21:58:34.829Z,4.93
2019-04-10T22:01:05.491Z,5.40
2019-04-10T22:03:34.005Z,4.70
2019-04-10T22:06:19.833Z,4.70
2019-04-10T22:08:50.050Z,4.10
2019-04-10T22:11:19.136Z,4.30
2019-04-10T22:13:48.587Z,4.83
2019-04-10T22:16:17.827Z,4.60
2019-04-10T22:18:46.462Z,4.47
2019-04-10T22:21:15.150Z,5.23
2019-04-10T22:23:44.688Z,5.10
2019-04-10T22:26:13.842Z,4.93
2019-04-10T22:28:43.453Z,5.20
2019-04-10T22:31:12.135Z,5.47
2019-04-10T22:33:40.557Z,5.60
2019-04-10T22:36:09.142Z,4.93
2019-04-10T22:38:37.788Z,4.83
2019-04-10T22:41:19.530Z,5.17
2019-04-10T22:43:36.598Z,4.60
2019-04-10T22:46:05.690Z,4.73
2019-04-10T22:48:34.154Z,5.43
2019-04-10T22:51:03.453Z,5.07
2019-04-10T22:53:33.113Z,4.73
2019-04-10T22:56:01.667Z,5.37
2019-04-10T22:58:30.095Z,5.50
2019-04-10T23:00:58.511Z,5.40
2019-04-10T23:03:27.917Z,6.20
2019-04-10T23:05:56.603Z,5.97
2019-04-10T23:08:25.333Z,5.80
2019-04-10T23:10:54.105Z,5.37
2019-04-10T23:13:23.633Z,5.10
2019-04-10T23:15:52.582Z,5.63
2019-04-10T23:18:21.379Z,5.67
2019-04-10T23:20:50.261Z,5.20
2019-04-10T23:23:19.031Z,4.90
2019-04-10T23:25:48.785Z,4.93
2019-04-10T23:28:17.696Z,5.47
2019-04-10T23:30:46.349Z,5.53
2019-04-10T23:33:15.515Z,5.60
2019-04-10T23:35:44.097Z,4.80
2019-04-10T23:38:12.508Z,5.03
2019-04-10T23:40:41.042Z,5.00
2019-04-10T23:43:14.105Z,5.70
2019-04-10T23:45:39.829Z,5.60
2019-04-10T23:48:08.775Z,5.50
2019-04-10T23:50:38.619Z,5.37
2019-04-10T23:53:07.184Z,5.20
2019-04-10T23:55:35.620Z,5.47
2019-04-10T23:58:04.073Z,6.13
